sensor_id;sensor_type;location;lat;lon;timestamp;P1;durP1;ratioP1;P2;durP2;ratioP2
82926;SDS011;72788;40.218;44.486;2023-12-22T00:00:44;37.70;;;18.02;;
82926;SDS011;72788;40.218;44.486;2023-12-22T00:03:12;40.47;;;17.08;;
82926;SDS011;72788;40.218;44.486;2023-12-22T00:05:39;47.22;;;17.67;;
82926;SDS011;72788;40.218;44.486;2023-12-22T00:08:05;40.40;;;17.80;;
82926;SDS011;72788;40.218;44.486;2023-12-22T00:10:31;42.15;;;17.35;;
82926;SDS011;72788;40.218;44.486;2023-12-22T00:12:56;39.55;;;17.77;;
82926;SDS011;72788;40.218;44.486;2023-12-22T00:15:22;42.33;;;18.80;;
82926;SDS011;72788;40.218;44.486;2023-12-22T00:17:48;45.53;;;19.98;;
82926;SDS011;72788;40.218;44.486;2023-12-22T00:20:13;41.33;;;17.73;;
82926;SDS011;72788;40.218;44.486;2023-12-22T00:22:39;42.88;;;19.17;;
82926;SDS011;72788;40.218;44.486;2023-12-22T00:25:05;46.70;;;21.50;;
82926;SDS011;72788;40.218;44.486;2023-12-22T00:27:33;47.33;;;20.20;;
82926;SDS011;72788;40.218;44.486;2023-12-22T00:29:59;44.47;;;19.05;;
82926;SDS011;72788;40.218;44.486;2023-12-22T00:32:24;46.75;;;20.85;;
82926;SDS011;72788;40.218;44.486;2023-12-22T00:34:50;41.92;;;20.15;;
82926;SDS011;72788;40.218;44.486;2023-12-22T00:37:16;41.28;;;20.00;;
82926;SDS011;72788;40.218;44.486;2023-12-22T00:39:42;45.00;;;19.10;;
82926;SDS011;72788;40.218;44.486;2023-12-22T00:42:07;45.20;;;18.50;;
82926;SDS011;72788;40.218;44.486;2023-12-22T00:44:33;44.40;;;19.40;;
82926;SDS011;72788;40.218;44.486;2023-12-22T00:46:59;47.95;;;19.40;;
82926;SDS011;72788;40.218;44.486;2023-12-22T00:49:24;44.45;;;17.58;;
82926;SDS011;72788;40.218;44.486;2023-12-22T00:51:50;44.17;;;18.98;;
82926;SDS011;72788;40.218;44.486;2023-12-22T00:54:16;35.83;;;17.77;;
82926;SDS011;72788;40.218;44.486;2023-12-22T00:56:41;43.42;;;18.05;;
82926;SDS011;72788;40.218;44.486;2023-12-22T00:59:07;37.72;;;17.48;;
82926;SDS011;72788;40.218;44.486;2023-12-22T01:01:32;51.50;;;18.83;;
82926;SDS011;72788;40.218;44.486;2023-12-22T01:03:58;43.75;;;19.13;;
82926;SDS011;72788;40.218;44.486;2023-12-22T01:06:24;39.78;;;17.27;;
82926;SDS011;72788;40.218;44.486;2023-12-22T01:08:49;40.05;;;17.27;;
82926;SDS011;72788;40.218;44.486;2023-12-22T01:11:16;44.33;;;17.70;;
82926;SDS011;72788;40.218;44.486;2023-12-22T01:13:42;37.08;;;17.05;;
82926;SDS011;72788;40.218;44.486;2023-12-22T01:16:08;40.00;;;19.23;;
82926;SDS011;72788;40.218;44.486;2023-12-22T01:18:34;43.22;;;18.60;;
82926;SDS011;72788;40.218;44.486;2023-12-22T01:21:00;37.53;;;17.40;;
82926;SDS011;72788;40.218;44.486;2023-12-22T01:23:26;41.15;;;18.15;;
82926;SDS011;72788;40.218;44.486;2023-12-22T01:25:51;41.85;;;19.13;;
82926;SDS011;72788;40.218;44.486;2023-12-22T01:28:17;41.67;;;17.95;;
82926;SDS011;72788;40.218;44.486;2023-12-22T01:30:43;42.20;;;18.85;;
82926;SDS011;72788;40.218;44.486;2023-12-22T01:33:08;43.15;;;18.80;;
82926;SDS011;72788;40.218;44.486;2023-12-22T01:35:34;37.63;;;17.55;;
82926;SDS011;72788;40.218;44.486;2023-12-22T01:38:00;43.85;;;17.15;;
82926;SDS011;72788;40.218;44.486;2023-12-22T01:40:25;39.47;;;16.58;;
82926;SDS011;72788;40.218;44.486;2023-12-22T01:42:51;39.70;;;18.52;;
82926;SDS011;72788;40.218;44.486;2023-12-22T01:45:17;36.00;;;15.68;;
82926;SDS011;72788;40.218;44.486;2023-12-22T01:47:43;41.40;;;16.15;;
82926;SDS011;72788;40.218;44.486;2023-12-22T01:50:11;33.88;;;16.02;;
82926;SDS011;72788;40.218;44.486;2023-12-22T01:52:38;34.03;;;14.35;;
82926;SDS011;72788;40.218;44.486;2023-12-22T01:55:07;36.35;;;15.15;;
82926;SDS011;72788;40.218;44.486;2023-12-22T01:57:36;29.75;;;12.90;;
82926;SDS011;72788;40.218;44.486;2023-12-22T02:00:02;34.70;;;14.10;;
82926;SDS011;72788;40.218;44.486;2023-12-22T02:02:29;33.88;;;13.75;;
82926;SDS011;72788;40.218;44.486;2023-12-22T02:04:56;33.72;;;14.85;;
82926;SDS011;72788;40.218;44.486;2023-12-22T02:07:23;36.38;;;14.40;;
82926;SDS011;72788;40.218;44.486;2023-12-22T02:09:48;36.20;;;16.95;;
82926;SDS011;72788;40.218;44.486;2023-12-22T02:12:14;37.65;;;18.20;;
82926;SDS011;72788;40.218;44.486;2023-12-22T02:14:40;45.65;;;18.35;;
82926;SDS011;72788;40.218;44.486;2023-12-22T02:17:10;45.95;;;21.15;;
82926;SDS011;72788;40.218;44.486;2023-12-22T02:19:42;43.38;;;20.77;;
82926;SDS011;72788;40.218;44.486;2023-12-22T02:22:09;50.38;;;21.95;;
82926;SDS011;72788;40.218;44.486;2023-12-22T02:24:37;56.40;;;23.20;;
82926;SDS011;72788;40.218;44.486;2023-12-22T02:27:14;57.75;;;24.65;;
82926;SDS011;72788;40.218;44.486;2023-12-22T02:32:43;60.17;;;24.95;;
82926;SDS011;72788;40.218;44.486;2023-12-22T02:35:14;53.95;;;24.17;;
82926;SDS011;72788;40.218;44.486;2023-12-22T02:37:42;59.08;;;24.90;;
82926;SDS011;72788;40.218;44.486;2023-12-22T02:40:10;60.13;;;27.42;;
82926;SDS011;72788;40.218;44.486;2023-12-22T02:42:37;63.92;;;27.30;;
82926;SDS011;72788;40.218;44.486;2023-12-22T02:45:04;53.15;;;25.02;;
82926;SDS011;72788;40.218;44.486;2023-12-22T02:47:31;63.72;;;28.20;;
82926;SDS011;72788;40.218;44.486;2023-12-22T02:49:58;61.22;;;29.98;;
82926;SDS011;72788;40.218;44.486;2023-12-22T02:52:24;71.57;;;31.58;;
82926;SDS011;72788;40.218;44.486;2023-12-22T02:54:50;71.07;;;32.33;;
82926;SDS011;72788;40.218;44.486;2023-12-22T02:57:15;87.50;;;33.53;;
82926;SDS011;72788;40.218;44.486;2023-12-22T02:59:41;77.80;;;31.98;;
82926;SDS011;72788;40.218;44.486;2023-12-22T03:02:07;82.35;;;33.65;;
82926;SDS011;72788;40.218;44.486;2023-12-22T03:04:32;100.28;;;44.40;;
82926;SDS011;72788;40.218;44.486;2023-12-22T03:06:58;125.85;;;50.17;;
82926;SDS011;72788;40.218;44.486;2023-12-22T03:09:24;90.88;;;39.60;;
82926;SDS011;72788;40.218;44.486;2023-12-22T03:11:50;83.43;;;34.88;;
82926;SDS011;72788;40.218;44.486;2023-12-22T03:14:19;75.07;;;33.88;;
82926;SDS011;72788;40.218;44.486;2023-12-22T03:16:45;69.05;;;30.60;;
82926;SDS011;72788;40.218;44.486;2023-12-22T03:19:11;72.63;;;31.27;;
82926;SDS011;72788;40.218;44.486;2023-12-22T03:21:36;75.90;;;29.42;;
82926;SDS011;72788;40.218;44.486;2023-12-22T03:24:02;75.32;;;29.50;;
82926;SDS011;72788;40.218;44.486;2023-12-22T03:26:28;78.38;;;31.75;;
82926;SDS011;72788;40.218;44.486;2023-12-22T03:28:54;55.55;;;27.23;;
82926;SDS011;72788;40.218;44.486;2023-12-22T03:31:19;51.72;;;23.55;;
82926;SDS011;72788;40.218;44.486;2023-12-22T03:33:45;50.42;;;26.35;;
82926;SDS011;72788;40.218;44.486;2023-12-22T03:36:11;55.08;;;23.60;;
82926;SDS011;72788;40.218;44.486;2023-12-22T03:38:36;60.70;;;27.05;;
82926;SDS011;72788;40.218;44.486;2023-12-22T03:41:02;66.97;;;23.52;;
82926;SDS011;72788;40.218;44.486;2023-12-22T03:43:28;61.55;;;26.27;;
82926;SDS011;72788;40.218;44.486;2023-12-22T03:45:56;56.50;;;24.90;;
82926;SDS011;72788;40.218;44.486;2023-12-22T03:48:22;49.85;;;25.92;;
82926;SDS011;72788;40.218;44.486;2023-12-22T03:50:48;66.70;;;27.60;;
82926;SDS011;72788;40.218;44.486;2023-12-22T03:53:13;62.92;;;26.45;;
82926;SDS011;72788;40.218;44.486;2023-12-22T03:55:39;59.72;;;26.35;;
82926;SDS011;72788;40.218;44.486;2023-12-22T03:58:05;63.45;;;27.23;;
82926;SDS011;72788;40.218;44.486;2023-12-22T04:00:32;69.00;;;26.70;;
82926;SDS011;72788;40.218;44.486;2023-12-22T04:02:58;55.80;;;26.30;;
82926;SDS011;72788;40.218;44.486;2023-12-22T04:05:24;66.90;;;29.92;;
82926;SDS011;72788;40.218;44.486;2023-12-22T04:07:50;60.78;;;25.45;;
82926;SDS011;72788;40.218;44.486;2023-12-22T04:10:18;58.38;;;26.60;;
82926;SDS011;72788;40.218;44.486;2023-12-22T04:12:44;67.85;;;27.38;;
82926;SDS011;72788;40.218;44.486;2023-12-22T04:15:10;55.38;;;23.83;;
82926;SDS011;72788;40.218;44.486;2023-12-22T04:17:36;68.38;;;25.67;;
82926;SDS011;72788;40.218;44.486;2023-12-22T04:20:02;61.25;;;26.35;;
82926;SDS011;72788;40.218;44.486;2023-12-22T04:22:27;60.15;;;26.33;;
82926;SDS011;72788;40.218;44.486;2023-12-22T04:24:53;66.15;;;27.42;;
82926;SDS011;72788;40.218;44.486;2023-12-22T04:27:19;52.67;;;25.45;;
82926;SDS011;72788;40.218;44.486;2023-12-22T04:29:44;55.45;;;24.27;;
82926;SDS011;72788;40.218;44.486;2023-12-22T04:32:10;89.60;;;41.05;;
82926;SDS011;72788;40.218;44.486;2023-12-22T04:34:36;66.00;;;32.35;;
82926;SDS011;72788;40.218;44.486;2023-12-22T04:37:01;83.47;;;39.20;;
82926;SDS011;72788;40.218;44.486;2023-12-22T04:39:27;64.95;;;26.88;;
82926;SDS011;72788;40.218;44.486;2023-12-22T04:41:53;57.80;;;24.83;;
82926;SDS011;72788;40.218;44.486;2023-12-22T04:44:18;54.05;;;24.90;;
82926;SDS011;72788;40.218;44.486;2023-12-22T04:46:44;55.47;;;25.55;;
82926;SDS011;72788;40.218;44.486;2023-12-22T04:49:09;54.00;;;25.02;;
82926;SDS011;72788;40.218;44.486;2023-12-22T04:51:35;58.08;;;24.27;;
82926;SDS011;72788;40.218;44.486;2023-12-22T04:54:01;59.40;;;25.85;;
82926;SDS011;72788;40.218;44.486;2023-12-22T04:56:26;66.05;;;27.75;;
82926;SDS011;72788;40.218;44.486;2023-12-22T04:58:52;58.75;;;27.08;;
82926;SDS011;72788;40.218;44.486;2023-12-22T05:01:17;64.78;;;26.77;;
82926;SDS011;72788;40.218;44.486;2023-12-22T05:03:44;62.95;;;26.38;;
82926;SDS011;72788;40.218;44.486;2023-12-22T05:06:10;63.30;;;26.85;;
82926;SDS011;72788;40.218;44.486;2023-12-22T05:08:35;66.03;;;29.35;;
82926;SDS011;72788;40.218;44.486;2023-12-22T05:11:01;64.95;;;25.08;;
82926;SDS011;72788;40.218;44.486;2023-12-22T05:13:27;58.45;;;23.95;;
82926;SDS011;72788;40.218;44.486;2023-12-22T05:15:52;57.45;;;22.38;;
82926;SDS011;72788;40.218;44.486;2023-12-22T05:18:18;57.38;;;22.20;;
82926;SDS011;72788;40.218;44.486;2023-12-22T05:20:44;52.60;;;20.40;;
82926;SDS011;72788;40.218;44.486;2023-12-22T05:23:10;42.42;;;20.40;;
82926;SDS011;72788;40.218;44.486;2023-12-22T05:25:35;43.50;;;18.67;;
82926;SDS011;72788;40.218;44.486;2023-12-22T05:28:01;47.83;;;22.10;;
82926;SDS011;72788;40.218;44.486;2023-12-22T05:30:27;52.28;;;21.02;;
82926;SDS011;72788;40.218;44.486;2023-12-22T05:32:52;48.63;;;20.95;;
82926;SDS011;72788;40.218;44.486;2023-12-22T05:35:19;54.63;;;25.65;;
82926;SDS011;72788;40.218;44.486;2023-12-22T05:37:46;47.05;;;23.70;;
82926;SDS011;72788;40.218;44.486;2023-12-22T05:40:13;51.42;;;25.65;;
82926;SDS011;72788;40.218;44.486;2023-12-22T05:42:38;57.08;;;25.58;;
82926;SDS011;72788;40.218;44.486;2023-12-22T05:45:04;64.22;;;27.13;;
82926;SDS011;72788;40.218;44.486;2023-12-22T05:47:31;85.53;;;33.97;;
82926;SDS011;72788;40.218;44.486;2023-12-22T05:49:57;69.05;;;31.13;;
82926;SDS011;72788;40.218;44.486;2023-12-22T05:52:23;77.75;;;32.97;;
82926;SDS011;72788;40.218;44.486;2023-12-22T05:54:49;71.75;;;28.02;;
82926;SDS011;72788;40.218;44.486;2023-12-22T05:57:15;70.57;;;26.98;;
82926;SDS011;72788;40.218;44.486;2023-12-22T05:59:42;59.53;;;26.13;;
82926;SDS011;72788;40.218;44.486;2023-12-22T06:02:07;74.78;;;27.73;;
82926;SDS011;72788;40.218;44.486;2023-12-22T06:04:33;59.20;;;24.35;;
82926;SDS011;72788;40.218;44.486;2023-12-22T06:07:00;48.03;;;23.63;;
82926;SDS011;72788;40.218;44.486;2023-12-22T06:09:25;73.03;;;25.10;;
82926;SDS011;72788;40.218;44.486;2023-12-22T06:11:51;61.85;;;26.75;;
82926;SDS011;72788;40.218;44.486;2023-12-22T06:14:17;67.38;;;30.58;;
82926;SDS011;72788;40.218;44.486;2023-12-22T06:16:43;69.80;;;27.30;;
82926;SDS011;72788;40.218;44.486;2023-12-22T06:19:08;59.10;;;25.00;;
82926;SDS011;72788;40.218;44.486;2023-12-22T06:21:38;58.75;;;22.73;;
82926;SDS011;72788;40.218;44.486;2023-12-22T06:24:05;54.00;;;23.70;;
82926;SDS011;72788;40.218;44.486;2023-12-22T06:26:31;54.60;;;23.90;;
82926;SDS011;72788;40.218;44.486;2023-12-22T06:28:56;52.80;;;22.30;;
82926;SDS011;72788;40.218;44.486;2023-12-22T06:31:22;54.97;;;22.25;;
82926;SDS011;72788;40.218;44.486;2023-12-22T06:33:48;51.25;;;21.30;;
82926;SDS011;72788;40.218;44.486;2023-12-22T06:36:21;48.08;;;20.95;;
82926;SDS011;72788;40.218;44.486;2023-12-22T06:38:51;49.80;;;22.10;;
82926;SDS011;72788;40.218;44.486;2023-12-22T06:43:49;44.40;;;19.67;;
82926;SDS011;72788;40.218;44.486;2023-12-22T06:46:19;51.85;;;23.77;;
82926;SDS011;72788;40.218;44.486;2023-12-22T06:48:52;62.35;;;26.15;;
82926;SDS011;72788;40.218;44.486;2023-12-22T06:51:19;52.00;;;23.10;;
82926;SDS011;72788;40.218;44.486;2023-12-22T06:53:48;64.45;;;24.05;;
82926;SDS011;72788;40.218;44.486;2023-12-22T06:56:22;65.55;;;27.15;;
82926;SDS011;72788;40.218;44.486;2023-12-22T06:58:49;76.80;;;31.50;;
82926;SDS011;72788;40.218;44.486;2023-12-22T07:01:48;77.88;;;31.63;;
82926;SDS011;72788;40.218;44.486;2023-12-22T07:04:07;130.15;;;47.35;;
82926;SDS011;72788;40.218;44.486;2023-12-22T07:06:33;82.57;;;37.97;;
82926;SDS011;72788;40.218;44.486;2023-12-22T07:11:38;80.50;;;36.78;;
82926;SDS011;72788;40.218;44.486;2023-12-22T07:14:04;81.40;;;35.13;;
82926;SDS011;72788;40.218;44.486;2023-12-22T07:16:29;90.10;;;34.00;;
82926;SDS011;72788;40.218;44.486;2023-12-22T07:18:55;99.18;;;39.40;;
82926;SDS011;72788;40.218;44.486;2023-12-22T07:21:20;103.97;;;39.92;;
82926;SDS011;72788;40.218;44.486;2023-12-22T07:23:46;111.60;;;41.35;;
82926;SDS011;72788;40.218;44.486;2023-12-22T07:26:12;99.18;;;41.20;;
82926;SDS011;72788;40.218;44.486;2023-12-22T07:28:37;111.47;;;42.95;;
82926;SDS011;72788;40.218;44.486;2023-12-22T07:31:03;115.90;;;47.45;;
82926;SDS011;72788;40.218;44.486;2023-12-22T07:33:30;118.88;;;48.50;;
82926;SDS011;72788;40.218;44.486;2023-12-22T07:35:56;120.20;;;46.35;;
82926;SDS011;72788;40.218;44.486;2023-12-22T07:38:22;117.85;;;49.60;;
82926;SDS011;72788;40.218;44.486;2023-12-22T07:40:47;132.57;;;57.65;;
82926;SDS011;72788;40.218;44.486;2023-12-22T07:43:13;144.65;;;61.35;;
82926;SDS011;72788;40.218;44.486;2023-12-22T07:45:39;162.98;;;68.03;;
82926;SDS011;72788;40.218;44.486;2023-12-22T07:48:05;124.95;;;57.53;;
82926;SDS011;72788;40.218;44.486;2023-12-22T07:50:32;120.03;;;55.83;;
82926;SDS011;72788;40.218;44.486;2023-12-22T07:52:58;121.90;;;51.70;;
82926;SDS011;72788;40.218;44.486;2023-12-22T07:55:25;154.55;;;67.80;;
82926;SDS011;72788;40.218;44.486;2023-12-22T07:57:51;145.93;;;60.03;;
82926;SDS011;72788;40.218;44.486;2023-12-22T08:00:17;130.05;;;56.97;;
82926;SDS011;72788;40.218;44.486;2023-12-22T08:02:43;122.13;;;51.70;;
82926;SDS011;72788;40.218;44.486;2023-12-22T08:05:09;128.70;;;57.25;;
82926;SDS011;72788;40.218;44.486;2023-12-22T08:07:35;132.98;;;54.85;;
82926;SDS011;72788;40.218;44.486;2023-12-22T08:10:01;117.63;;;54.30;;
82926;SDS011;72788;40.218;44.486;2023-12-22T08:12:28;130.27;;;54.78;;
82926;SDS011;72788;40.218;44.486;2023-12-22T08:14:54;159.63;;;64.70;;
82926;SDS011;72788;40.218;44.486;2023-12-22T08:17:20;125.35;;;54.53;;
82926;SDS011;72788;40.218;44.486;2023-12-22T08:19:45;133.18;;;53.72;;
82926;SDS011;72788;40.218;44.486;2023-12-22T08:22:12;128.93;;;54.97;;
82926;SDS011;72788;40.218;44.486;2023-12-22T08:24:38;120.65;;;49.67;;
82926;SDS011;72788;40.218;44.486;2023-12-22T08:27:07;147.02;;;55.83;;
82926;SDS011;72788;40.218;44.486;2023-12-22T08:29:33;145.15;;;56.60;;
82926;SDS011;72788;40.218;44.486;2023-12-22T08:31:59;126.68;;;55.63;;
82926;SDS011;72788;40.218;44.486;2023-12-22T08:34:25;149.60;;;69.75;;
82926;SDS011;72788;40.218;44.486;2023-12-22T08:36:51;167.18;;;61.75;;
82926;SDS011;72788;40.218;44.486;2023-12-22T08:39:17;126.47;;;51.70;;
82926;SDS011;72788;40.218;44.486;2023-12-22T08:41:43;122.47;;;53.47;;
82926;SDS011;72788;40.218;44.486;2023-12-22T08:44:09;120.82;;;52.13;;
82926;SDS011;72788;40.218;44.486;2023-12-22T08:46:35;128.05;;;53.00;;
82926;SDS011;72788;40.218;44.486;2023-12-22T08:49:02;127.50;;;51.30;;
82926;SDS011;72788;40.218;44.486;2023-12-22T08:51:28;118.68;;;50.95;;
82926;SDS011;72788;40.218;44.486;2023-12-22T08:53:54;118.03;;;47.88;;
82926;SDS011;72788;40.218;44.486;2023-12-22T08:56:21;115.07;;;46.95;;
82926;SDS011;72788;40.218;44.486;2023-12-22T08:58:47;115.97;;;46.70;;
82926;SDS011;72788;40.218;44.486;2023-12-22T09:01:17;118.68;;;48.90;;
82926;SDS011;72788;40.218;44.486;2023-12-22T09:03:43;147.68;;;52.00;;
82926;SDS011;72788;40.218;44.486;2023-12-22T09:06:15;129.90;;;50.83;;
82926;SDS011;72788;40.218;44.486;2023-12-22T09:08:42;128.07;;;52.10;;
82926;SDS011;72788;40.218;44.486;2023-12-22T09:11:10;121.95;;;53.15;;
82926;SDS011;72788;40.218;44.486;2023-12-22T14:03:46;87.95;;;36.33;;
82926;SDS011;72788;40.218;44.486;2023-12-22T14:06:12;113.15;;;40.75;;
82926;SDS011;72788;40.218;44.486;2023-12-22T14:08:40;89.55;;;38.00;;
82926;SDS011;72788;40.218;44.486;2023-12-22T14:11:07;95.93;;;38.72;;
82926;SDS011;72788;40.218;44.486;2023-12-22T14:13:33;109.03;;;40.70;;
82926;SDS011;72788;40.218;44.486;2023-12-22T14:16:04;105.07;;;38.75;;
82926;SDS011;72788;40.218;44.486;2023-12-22T14:18:31;122.68;;;43.25;;
82926;SDS011;72788;40.218;44.486;2023-12-22T14:20:56;100.70;;;38.78;;
82926;SDS011;72788;40.218;44.486;2023-12-22T14:23:23;107.40;;;43.75;;
82926;SDS011;72788;40.218;44.486;2023-12-22T14:25:49;120.55;;;44.67;;
82926;SDS011;72788;40.218;44.486;2023-12-22T14:28:15;105.07;;;44.58;;
82926;SDS011;72788;40.218;44.486;2023-12-22T14:30:41;111.32;;;46.20;;
82926;SDS011;72788;40.218;44.486;2023-12-22T14:33:07;101.43;;;46.08;;
82926;SDS011;72788;40.218;44.486;2023-12-22T14:35:33;111.20;;;45.50;;
82926;SDS011;72788;40.218;44.486;2023-12-22T14:37:59;107.38;;;47.25;;
82926;SDS011;72788;40.218;44.486;2023-12-22T14:40:24;110.30;;;47.63;;
82926;SDS011;72788;40.218;44.486;2023-12-22T14:42:50;106.57;;;45.45;;
82926;SDS011;72788;40.218;44.486;2023-12-22T14:45:16;122.68;;;49.33;;
82926;SDS011;72788;40.218;44.486;2023-12-22T14:47:42;126.03;;;47.78;;
82926;SDS011;72788;40.218;44.486;2023-12-22T14:50:07;125.57;;;51.78;;
82926;SDS011;72788;40.218;44.486;2023-12-22T14:52:33;120.75;;;49.28;;
82926;SDS011;72788;40.218;44.486;2023-12-22T14:55:00;131.40;;;49.95;;
82926;SDS011;72788;40.218;44.486;2023-12-22T14:57:26;119.60;;;50.72;;
82926;SDS011;72788;40.218;44.486;2023-12-22T14:59:54;125.60;;;49.22;;
82926;SDS011;72788;40.218;44.486;2023-12-22T15:02:20;116.35;;;46.15;;
82926;SDS011;72788;40.218;44.486;2023-12-22T15:04:46;113.43;;;46.55;;
82926;SDS011;72788;40.218;44.486;2023-12-22T15:07:17;112.70;;;45.25;;
82926;SDS011;72788;40.218;44.486;2023-12-22T15:09:44;114.85;;;47.03;;
82926;SDS011;72788;40.218;44.486;2023-12-22T15:12:14;96.55;;;43.38;;
82926;SDS011;72788;40.218;44.486;2023-12-22T15:14:44;104.03;;;45.85;;
82926;SDS011;72788;40.218;44.486;2023-12-22T15:17:10;90.32;;;40.67;;
82926;SDS011;72788;40.218;44.486;2023-12-22T15:19:39;100.50;;;41.60;;
82926;SDS011;72788;40.218;44.486;2023-12-22T15:22:06;93.75;;;39.10;;
82926;SDS011;72788;40.218;44.486;2023-12-22T15:24:31;97.40;;;40.78;;
82926;SDS011;72788;40.218;44.486;2023-12-22T15:26:57;99.90;;;41.70;;
82926;SDS011;72788;40.218;44.486;2023-12-22T15:29:23;98.22;;;40.78;;
82926;SDS011;72788;40.218;44.486;2023-12-22T15:31:49;98.32;;;41.75;;
82926;SDS011;72788;40.218;44.486;2023-12-22T15:34:14;110.32;;;44.35;;
82926;SDS011;72788;40.218;44.486;2023-12-22T15:36:40;105.28;;;43.63;;
82926;SDS011;72788;40.218;44.486;2023-12-22T15:39:06;115.22;;;46.72;;
82926;SDS011;72788;40.218;44.486;2023-12-22T15:41:31;95.30;;;43.47;;
82926;SDS011;72788;40.218;44.486;2023-12-22T15:43:57;105.57;;;44.85;;
82926;SDS011;72788;40.218;44.486;2023-12-22T15:46:23;102.40;;;44.17;;
82926;SDS011;72788;40.218;44.486;2023-12-22T15:48:48;98.22;;;44.70;;
82926;SDS011;72788;40.218;44.486;2023-12-22T15:51:14;101.63;;;40.30;;
82926;SDS011;72788;40.218;44.486;2023-12-22T15:53:40;104.97;;;44.45;;
82926;SDS011;72788;40.218;44.486;2023-12-22T15:56:09;103.47;;;42.17;;
82926;SDS011;72788;40.218;44.486;2023-12-22T15:58:37;88.60;;;42.30;;
82926;SDS011;72788;40.218;44.486;2023-12-22T16:01:05;98.70;;;42.10;;
82926;SDS011;72788;40.218;44.486;2023-12-22T16:03:31;102.30;;;41.63;;
82926;SDS011;72788;40.218;44.486;2023-12-22T16:05:57;101.28;;;40.50;;
82926;SDS011;72788;40.218;44.486;2023-12-22T16:08:23;90.57;;;41.13;;
82926;SDS011;72788;40.218;44.486;2023-12-22T16:10:50;99.50;;;44.42;;
82926;SDS011;72788;40.218;44.486;2023-12-22T16:13:16;97.65;;;42.58;;
82926;SDS011;72788;40.218;44.486;2023-12-22T16:15:41;101.97;;;41.25;;
82926;SDS011;72788;40.218;44.486;2023-12-22T16:18:07;97.63;;;42.47;;
82926;SDS011;72788;40.218;44.486;2023-12-22T16:20:34;82.20;;;40.60;;
82926;SDS011;72788;40.218;44.486;2023-12-22T16:23:03;88.93;;;39.25;;
82926;SDS011;72788;40.218;44.486;2023-12-22T16:25:30;97.97;;;41.65;;
82926;SDS011;72788;40.218;44.486;2023-12-22T16:27:55;95.43;;;43.28;;
82926;SDS011;72788;40.218;44.486;2023-12-22T16:30:21;88.78;;;39.65;;
82926;SDS011;72788;40.218;44.486;2023-12-22T16:32:50;95.70;;;38.97;;
82926;SDS011;72788;40.218;44.486;2023-12-22T16:35:16;90.18;;;41.08;;
82926;SDS011;72788;40.218;44.486;2023-12-22T16:37:44;102.35;;;40.42;;
82926;SDS011;72788;40.218;44.486;2023-12-22T16:40:11;97.10;;;38.20;;
82926;SDS011;72788;40.218;44.486;2023-12-22T16:42:38;104.75;;;43.85;;
82926;SDS011;72788;40.218;44.486;2023-12-22T16:45:05;99.90;;;42.65;;
82926;SDS011;72788;40.218;44.486;2023-12-22T16:47:31;107.80;;;44.50;;
82926;SDS011;72788;40.218;44.486;2023-12-22T16:49:57;101.43;;;46.55;;
82926;SDS011;72788;40.218;44.486;2023-12-22T16:52:24;77.72;;;35.22;;
82926;SDS011;72788;40.218;44.486;2023-12-22T16:54:50;96.10;;;43.50;;
82926;SDS011;72788;40.218;44.486;2023-12-22T16:57:16;94.78;;;43.40;;
82926;SDS011;72788;40.218;44.486;2023-12-22T16:59:42;105.22;;;44.58;;
82926;SDS011;72788;40.218;44.486;2023-12-22T17:02:08;107.43;;;43.70;;
82926;SDS011;72788;40.218;44.486;2023-12-22T17:04:34;96.13;;;44.35;;
82926;SDS011;72788;40.218;44.486;2023-12-22T17:06:59;107.72;;;43.55;;
82926;SDS011;72788;40.218;44.486;2023-12-22T17:09:30;85.25;;;39.25;;
82926;SDS011;72788;40.218;44.486;2023-12-22T17:11:56;103.80;;;40.65;;
82926;SDS011;72788;40.218;44.486;2023-12-22T17:14:22;96.38;;;40.28;;
82926;SDS011;72788;40.218;44.486;2023-12-22T17:16:47;93.40;;;41.78;;
82926;SDS011;72788;40.218;44.486;2023-12-22T17:19:13;102.15;;;44.50;;
82926;SDS011;72788;40.218;44.486;2023-12-22T17:21:39;130.80;;;47.92;;
82926;SDS011;72788;40.218;44.486;2023-12-22T17:24:07;114.40;;;49.22;;
82926;SDS011;72788;40.218;44.486;2023-12-22T17:26:34;110.93;;;47.83;;
82926;SDS011;72788;40.218;44.486;2023-12-22T17:28:59;120.32;;;51.22;;
82926;SDS011;72788;40.218;44.486;2023-12-22T17:31:26;113.00;;;48.80;;
82926;SDS011;72788;40.218;44.486;2023-12-22T17:33:52;135.27;;;57.75;;
82926;SDS011;72788;40.218;44.486;2023-12-22T17:36:18;139.18;;;57.97;;
82926;SDS011;72788;40.218;44.486;2023-12-22T17:38:44;144.52;;;60.95;;
82926;SDS011;72788;40.218;44.486;2023-12-22T17:41:10;147.40;;;61.67;;
82926;SDS011;72788;40.218;44.486;2023-12-22T17:43:36;149.18;;;62.38;;
82926;SDS011;72788;40.218;44.486;2023-12-22T17:46:01;137.48;;;62.00;;
82926;SDS011;72788;40.218;44.486;2023-12-22T17:48:27;140.85;;;64.35;;
82926;SDS011;72788;40.218;44.486;2023-12-22T17:50:53;142.57;;;63.65;;
82926;SDS011;72788;40.218;44.486;2023-12-22T17:53:19;143.63;;;61.67;;
82926;SDS011;72788;40.218;44.486;2023-12-22T17:55:48;141.13;;;61.92;;
82926;SDS011;72788;40.218;44.486;2023-12-22T17:58:15;148.70;;;63.95;;
82926;SDS011;72788;40.218;44.486;2023-12-22T18:00:40;163.52;;;62.28;;
82926;SDS011;72788;40.218;44.486;2023-12-22T18:03:06;136.65;;;60.50;;
82926;SDS011;72788;40.218;44.486;2023-12-22T18:05:32;146.13;;;57.13;;
82926;SDS011;72788;40.218;44.486;2023-12-22T18:07:57;141.50;;;60.60;;
82926;SDS011;72788;40.218;44.486;2023-12-22T18:10:23;144.65;;;62.25;;
82926;SDS011;72788;40.218;44.486;2023-12-22T18:12:49;138.98;;;60.17;;
82926;SDS011;72788;40.218;44.486;2023-12-22T18:15:14;144.95;;;60.85;;
82926;SDS011;72788;40.218;44.486;2023-12-22T18:17:40;139.60;;;60.97;;
82926;SDS011;72788;40.218;44.486;2023-12-22T18:20:06;146.77;;;60.22;;
82926;SDS011;72788;40.218;44.486;2023-12-22T18:22:32;142.20;;;62.60;;
82926;SDS011;72788;40.218;44.486;2023-12-22T18:24:58;144.10;;;62.80;;
82926;SDS011;72788;40.218;44.486;2023-12-22T18:27:23;139.52;;;60.70;;
82926;SDS011;72788;40.218;44.486;2023-12-22T18:29:51;142.60;;;61.00;;
82926;SDS011;72788;40.218;44.486;2023-12-22T18:32:17;151.00;;;64.05;;
82926;SDS011;72788;40.218;44.486;2023-12-22T18:34:42;139.63;;;61.92;;
82926;SDS011;72788;40.218;44.486;2023-12-22T18:37:08;146.10;;;61.88;;
82926;SDS011;72788;40.218;44.486;2023-12-22T18:39:34;135.32;;;63.13;;
82926;SDS011;72788;40.218;44.486;2023-12-22T18:41:59;147.75;;;62.00;;
82926;SDS011;72788;40.218;44.486;2023-12-22T18:44:34;145.70;;;61.90;;
82926;SDS011;72788;40.218;44.486;2023-12-22T18:47:00;149.02;;;63.67;;
82926;SDS011;72788;40.218;44.486;2023-12-22T18:49:26;137.77;;;63.15;;
82926;SDS011;72788;40.218;44.486;2023-12-22T18:51:51;156.43;;;68.15;;
82926;SDS011;72788;40.218;44.486;2023-12-22T18:54:17;139.57;;;64.47;;
82926;SDS011;72788;40.218;44.486;2023-12-22T18:56:43;153.10;;;67.03;;